createdAt,value
2022-09-29T00:01:09.122Z,6.60
2022-09-29T00:03:37.526Z,6.90
2022-09-29T00:06:15.257Z,6.80
2022-09-29T00:08:42.986Z,7.70
2022-09-29T00:11:13.219Z,6.90
2022-09-29T00:13:40.795Z,7.00
2022-09-29T00:16:08.453Z,6.00
2022-09-29T00:18:36.103Z,5.70
2022-09-29T00:21:04.720Z,7.20
2022-09-29T00:23:34.067Z,7.10
2022-09-29T00:26:13.681Z,6.80
2022-09-29T00:28:47.144Z,6.60
2022-09-29T00:31:16.093Z,7.00
2022-09-29T00:33:43.611Z,6.30
2022-09-29T00:36:15.068Z,6.30
2022-09-29T00:41:20.820Z,6.30
2022-09-29T00:44:04.649Z,6.40
2022-09-29T00:47:02.820Z,6.40
2022-09-29T00:49:45.366Z,6.20
2022-09-29T00:52:37.621Z,8.30
2022-09-29T00:55:09.594Z,6.70
2022-09-29T00:57:56.394Z,7.20
2022-09-29T01:00:24.253Z,7.50
2022-09-29T01:03:20.013Z,7.10
2022-09-29T01:05:55.603Z,7.50
2022-09-29T01:08:45.177Z,6.30
2022-09-29T01:11:13.677Z,6.80
2022-09-29T01:13:41.527Z,6.60
2022-09-29T01:16:09.110Z,6.70
2022-09-29T01:18:37.393Z,7.80
2022-09-29T01:21:19.736Z,8.00
2022-09-29T01:24:49.244Z,6.70
2022-09-29T01:27:26.579Z,6.90
2022-09-29T01:30:21.094Z,6.50
2022-09-29T01:33:45.380Z,6.50
2022-09-29T01:36:42.787Z,6.30
2022-09-29T01:39:35.278Z,6.70
2022-09-29T01:42:15.711Z,8.10
2022-09-29T01:44:45.877Z,7.60
2022-09-29T01:47:36.637Z,7.40
2022-09-29T01:50:14.787Z,7.20
2022-09-29T01:52:46.860Z,6.50
2022-09-29T01:55:18.911Z,6.90
2022-09-29T01:57:56.901Z,6.20
2022-09-29T02:00:31.038Z,6.50
2022-09-29T02:03:19.429Z,6.40
2022-09-29T02:05:58.914Z,6.10
2022-09-29T02:08:50.208Z,6.10
2022-09-29T02:11:18.418Z,6.10
2022-09-29T02:14:13.935Z,5.80
2022-09-29T02:17:31.582Z,6.10
2022-09-29T02:19:58.945Z,7.00
2022-09-29T02:22:26.385Z,6.40
2022-09-29T02:24:58.609Z,6.50
2022-09-29T02:27:33.051Z,6.20
2022-09-29T02:30:00.387Z,7.10
2022-09-29T02:32:29.849Z,7.30
2022-09-29T02:34:57.573Z,7.40
2022-09-29T02:37:49.522Z,7.50
2022-09-29T02:40:35.615Z,7.60
2022-09-29T02:43:24.419Z,7.30
2022-09-29T02:46:10.397Z,7.80
2022-09-29T02:49:02.152Z,7.50
2022-09-29T02:51:37.548Z,7.30
2022-09-29T02:54:25.009Z,7.00
2022-09-29T02:57:26.024Z,6.70
2022-09-29T03:00:10.512Z,6.60
2022-09-29T03:02:41.958Z,6.70
2022-09-29T03:05:15.794Z,6.00
2022-09-29T03:07:43.618Z,5.70
2022-09-29T03:10:13.279Z,5.80
2022-09-29T03:12:40.766Z,5.70
2022-09-29T03:15:11.948Z,6.30
2022-09-29T03:17:40.577Z,6.60
2022-09-29T03:20:10.342Z,7.20
2022-09-29T03:22:37.968Z,7.20
2022-09-29T03:25:06.563Z,6.80
2022-09-29T03:27:36.367Z,6.70
2022-09-29T03:30:05.027Z,6.60
2022-09-29T03:32:33.102Z,6.40
2022-09-29T03:35:00.634Z,6.40
2022-09-29T03:37:28.472Z,6.80
2022-09-29T03:39:55.932Z,6.80
2022-09-29T03:42:23.896Z,6.90
2022-09-29T03:44:51.459Z,7.10
2022-09-29T03:47:18.910Z,6.30
2022-09-29T03:49:46.459Z,5.90
2022-09-29T03:52:13.933Z,6.10
2022-09-29T03:54:41.370Z,6.00
2022-09-29T03:57:08.888Z,5.80
2022-09-29T03:59:36.660Z,5.30
2022-09-29T04:02:04.332Z,5.70
2022-09-29T04:04:31.890Z,5.90
2022-09-29T04:07:00.328Z,6.30
2022-09-29T04:09:27.975Z,6.30
2022-09-29T04:14:27.732Z,6.70
2022-09-29T04:16:57.902Z,7.20
2022-09-29T04:19:25.521Z,7.40
2022-09-29T04:21:53.417Z,7.20
2022-09-29T04:24:20.784Z,7.30
2022-09-29T04:26:48.055Z,6.60
2022-09-29T04:29:15.569Z,6.60
2022-09-29T04:31:42.916Z,6.80
2022-09-29T04:34:10.365Z,7.90
2022-09-29T04:36:37.871Z,7.10
2022-09-29T04:39:05.447Z,7.40
2022-09-29T04:41:35.530Z,7.50
2022-09-29T04:44:02.927Z,7.30
2022-09-29T04:46:30.087Z,6.70
2022-09-29T04:48:57.444Z,6.30
2022-09-29T04:51:24.873Z,6.70
2022-09-29T04:53:53.052Z,7.50
2022-09-29T04:56:20.474Z,6.70
2022-09-29T04:58:47.896Z,6.60
2022-09-29T05:01:15.865Z,6.80
2022-09-29T05:03:43.278Z,7.30
2022-09-29T05:06:10.884Z,7.10
2022-09-29T05:08:38.367Z,6.40
2022-09-29T05:11:07.809Z,6.40
2022-09-29T05:13:36.202Z,7.70
2022-09-29T05:16:04.496Z,7.80
2022-09-29T05:18:32.260Z,7.60
2022-09-29T05:23:55.915Z,10.10
2022-09-29T05:26:23.840Z,8.10
2022-09-29T05:28:51.284Z,7.70
2022-09-29T05:31:18.600Z,7.60
2022-09-29T05:33:46.027Z,6.70
2022-09-29T05:36:13.444Z,7.60
2022-09-29T05:38:40.809Z,11.80
2022-09-29T05:41:13.092Z,10.80
2022-09-29T05:43:40.429Z,8.00
2022-09-29T05:46:10.320Z,9.00
2022-09-29T05:48:37.968Z,8.50
2022-09-29T05:51:11.327Z,8.80
2022-09-29T05:53:39.273Z,9.70
2022-09-29T05:56:22.144Z,8.70
2022-09-29T05:58:50.401Z,8.70
2022-09-29T06:01:23.935Z,9.30
2022-09-29T06:03:54.682Z,9.80
2022-09-29T06:06:25.282Z,9.50
2022-09-29T06:08:53.230Z,10.10
2022-09-29T06:11:29.362Z,9.60
2022-09-29T06:13:56.653Z,8.60
2022-09-29T06:16:27.286Z,9.80
2022-09-29T06:18:55.071Z,9.80
2022-09-29T06:21:27.045Z,10.10
2022-09-29T06:23:55.853Z,9.50
2022-09-29T06:26:24.862Z,9.70
2022-09-29T06:28:53.725Z,9.80
2022-09-29T06:31:25.380Z,9.70
2022-09-29T06:33:55.864Z,10.50
2022-09-29T06:36:58.019Z,10.30
2022-09-29T06:39:26.202Z,10.60
2022-09-29T06:41:55.793Z,10.70
2022-09-29T06:44:27.585Z,11.10
2022-09-29T06:46:55.319Z,13.40
2022-09-29T06:49:23.703Z,11.40
2022-09-29T06:51:51.704Z,11.40
2022-09-29T06:54:21.949Z,11.30
2022-09-29T06:56:50.783Z,13.00
2022-09-29T06:59:18.357Z,11.90
2022-09-29T07:01:49.962Z,12.50
2022-09-29T07:04:20.331Z,11.00
2022-09-29T07:06:49.033Z,10.30
2022-09-29T07:09:16.994Z,10.20
2022-09-29T07:11:47.535Z,11.70
2022-09-29T07:14:22.386Z,10.40
2022-09-29T07:16:50.148Z,9.40
2022-09-29T07:19:18.984Z,10.00
2022-09-29T07:21:47.212Z,10.80
2022-09-29T07:24:15.469Z,9.70
2022-09-29T07:26:42.987Z,8.80
2022-09-29T07:29:15.347Z,9.90
2022-09-29T07:31:52.520Z,10.40
2022-09-29T07:34:21.981Z,9.30
2022-09-29T07:36:49.920Z,8.70
2022-09-29T07:39:20.435Z,10.30
2022-09-29T07:41:48.677Z,8.70
2022-09-29T07:44:16.214Z,9.70
2022-09-29T07:46:43.581Z,8.70
2022-09-29T07:49:11.029Z,7.20
2022-09-29T07:51:38.339Z,7.50
2022-09-29T07:54:06.003Z,7.40
2022-09-29T07:56:34.887Z,7.00
2022-09-29T07:59:02.830Z,6.60
2022-09-29T08:01:31.472Z,6.60
2022-09-29T08:03:59.340Z,8.00
2022-09-29T08:06:27.447Z,7.80
2022-09-29T08:09:03.638Z,8.60
2022-09-29T08:11:37.479Z,7.10
2022-09-29T08:14:05.319Z,7.20
2022-09-29T08:16:33.926Z,7.00
2022-09-29T08:19:02.347Z,6.80
2022-09-29T08:21:31.557Z,7.50
2022-09-29T08:24:00.042Z,7.10
2022-09-29T08:26:39.619Z,5.50
2022-09-29T08:29:16.032Z,5.70
2022-09-29T08:31:45.898Z,6.00
2022-09-29T08:34:14.113Z,6.50
2022-09-29T08:36:41.780Z,5.20
2022-09-29T08:39:11.235Z,4.90
2022-09-29T08:41:56.243Z,5.30
2022-09-29T08:44:38.959Z,6.10
2022-09-29T08:47:47.834Z,4.70
2022-09-29T08:50:32.820Z,5.40
2022-09-29T08:53:08.193Z,5.20
2022-09-29T08:55:57.866Z,5.70
2022-09-29T08:58:25.836Z,5.30
2022-09-29T09:01:26.995Z,5.90
2022-09-29T09:06:55.359Z,4.70
2022-09-29T09:09:47.576Z,4.60
2022-09-29T09:12:43.818Z,5.60
2022-09-29T09:15:48.134Z,6.10
2022-09-29T09:18:41.744Z,5.50
2022-09-29T09:21:26.439Z,19.20
2022-09-29T09:24:07.942Z,6.80
2022-09-29T09:26:44.941Z,7.10
2022-09-29T09:29:39.771Z,5.80
2022-09-29T09:32:19.228Z,5.60
2022-09-29T09:34:55.603Z,6.30
2022-09-29T09:37:34.347Z,5.60
2022-09-29T09:40:20.381Z,5.90
2022-09-29T09:42:58.380Z,6.80
2022-09-29T09:45:33.146Z,5.80
2022-09-29T09:48:14.103Z,5.20
2022-09-29T09:50:43.048Z,5.00
2022-09-29T09:53:35.365Z,3.40
2022-09-29T09:56:38.289Z,4.80
2022-09-29T09:59:46.036Z,5.00
2022-09-29T10:02:21.766Z,4.30
2022-09-29T10:04:54.056Z,4.10
2022-09-29T10:07:25.235Z,4.90
2022-09-29T10:09:52.888Z,10.00
2022-09-29T10:12:23.016Z,3.60
2022-09-29T10:14:59.889Z,4.20
2022-09-29T10:17:39.112Z,3.00
2022-09-29T10:20:08.692Z,3.50
2022-09-29T10:22:39.132Z,4.80
2022-09-29T10:25:12.322Z,11.80
2022-09-29T10:27:43.283Z,5.50
2022-09-29T10:30:44.396Z,3.60
2022-09-29T10:33:23.251Z,4.70
2022-09-29T10:36:04.687Z,4.30
2022-09-29T10:38:32.373Z,3.20
2022-09-29T10:41:05.811Z,6.50
2022-09-29T10:43:42.630Z,8.90
2022-09-29T10:46:37.698Z,9.30
2022-09-29T10:49:19.190Z,5.20
2022-09-29T10:52:00.276Z,5.60
2022-09-29T10:54:32.056Z,3.70
2022-09-29T10:57:00.221Z,3.70
2022-09-29T10:59:28.181Z,4.50
2022-09-29T11:02:00.251Z,4.30
2022-09-29T11:04:35.985Z,4.60
2022-09-29T11:07:11.928Z,4.20
2022-09-29T11:09:42.004Z,5.10
2022-09-29T11:12:38.572Z,3.30
2022-09-29T11:15:40.041Z,3.80
2022-09-29T11:18:37.439Z,3.00
2022-09-29T11:21:19.950Z,3.30
2022-09-29T11:23:58.627Z,3.10
2022-09-29T11:26:43.278Z,4.60
2022-09-29T11:29:35.925Z,3.60
2022-09-29T11:33:04.824Z,3.60
2022-09-29T11:35:50.121Z,3.60
2022-09-29T11:39:01.752Z,2.80
2022-09-29T11:41:56.464Z,3.00
2022-09-29T11:44:37.685Z,2.60
2022-09-29T11:47:28.184Z,2.60
2022-09-29T11:50:20.667Z,5.10
2022-09-29T11:53:23.082Z,4.20
2022-09-29T11:56:12.973Z,3.10
2022-09-29T11:59:36.581Z,5.80
2022-09-29T12:02:31.329Z,3.40
2022-09-29T12:05:13.584Z,3.30
2022-09-29T12:08:22.545Z,3.50
2022-09-29T12:11:23.788Z,4.00
2022-09-29T12:14:12.080Z,3.90
2022-09-29T12:16:45.414Z,4.50
2022-09-29T12:19:20.189Z,4.40
2022-09-29T12:21:51.050Z,3.50
2022-09-29T12:24:36.245Z,3.90
2022-09-29T12:27:34.710Z,4.60
2022-09-29T12:30:19.848Z,3.50
2022-09-29T12:33:02.829Z,4.00
2022-09-29T12:36:03.617Z,4.30
2022-09-29T12:38:39.702Z,3.50
2022-09-29T12:41:21.666Z,3.80
2022-09-29T12:43:59.389Z,4.50
2022-09-29T12:47:27.285Z,4.50
2022-09-29T12:50:14.174Z,3.90
2022-09-29T12:53:09.152Z,4.80
2022-09-29T12:56:01.730Z,3.80
2022-09-29T12:58:45.365Z,4.90
2022-09-29T13:01:31.428Z,4.10
2022-09-29T13:04:35.838Z,7.70
2022-09-29T13:07:21.630Z,6.80
2022-09-29T13:10:04.273Z,10.50
2022-09-29T13:13:20.035Z,9.40
2022-09-29T13:16:13.536Z,6.30
2022-09-29T13:19:20.953Z,7.10
2022-09-29T13:22:41.305Z,5.40
2022-09-29T13:26:06.753Z,5.30
2022-09-29T13:28:44.499Z,4.70
2022-09-29T13:31:32.514Z,8.20
2022-09-29T13:34:02.632Z,4.80
2022-09-29T13:36:38.949Z,14.30
2022-09-29T13:39:23.333Z,4.70
2022-09-29T13:41:55.405Z,3.10
2022-09-29T13:44:28.138Z,4.00
2022-09-29T13:46:56.820Z,4.60
2022-09-29T13:49:29.981Z,3.00
2022-09-29T13:52:39.847Z,2.70
2022-09-29T13:56:02.278Z,2.40
2022-09-29T13:58:34.699Z,2.70
2022-09-29T14:01:06.027Z,2.70
2022-09-29T14:03:34.817Z,5.50
2022-09-29T14:09:16.753Z,4.00
2022-09-29T14:11:50.331Z,4.50
2022-09-29T14:14:33.438Z,3.30
2022-09-29T14:17:01.189Z,4.10
2022-09-29T14:20:04.198Z,6.60
2022-09-29T14:22:32.219Z,5.00
2022-09-29T14:25:12.382Z,4.70
2022-09-29T14:27:51.492Z,3.70
2022-09-29T14:30:50.718Z,3.20
2022-09-29T14:33:45.682Z,3.60
2022-09-29T14:40:16.625Z,4.30
2022-09-29T14:43:22.306Z,4.80
2022-09-29T14:47:19.023Z,6.90
2022-09-29T14:50:55.277Z,3.80
2022-09-29T14:54:03.466Z,4.70
2022-09-29T14:56:37.231Z,4.60
2022-09-29T14:59:40.025Z,3.90
2022-09-29T15:02:22.584Z,3.30
2022-09-29T15:04:50.244Z,7.90
2022-09-29T15:07:24.032Z,4.90
2022-09-29T15:09:57.922Z,5.00
2022-09-29T15:12:28.800Z,5.90
2022-09-29T15:17:53.899Z,6.30
2022-09-29T15:20:50.871Z,8.60
2022-09-29T15:23:57.166Z,7.90
2022-09-29T15:26:26.701Z,5.60
2022-09-29T15:28:54.216Z,5.60
2022-09-29T15:31:29.076Z,6.80
2022-09-29T15:33:56.883Z,5.60
2022-09-29T15:36:28.555Z,6.40
2022-09-29T15:39:04.744Z,8.30
2022-09-29T15:41:34.204Z,8.20
2022-09-29T15:44:21.770Z,7.80
2022-09-29T15:46:52.075Z,9.10
2022-09-29T15:49:22.731Z,13.40
2022-09-29T15:52:06.102Z,6.30
2022-09-29T15:54:44.283Z,7.60
2022-09-29T15:57:50.762Z,7.80
2022-09-29T16:00:21.193Z,8.60
2022-09-29T16:02:54.371Z,10.70
2022-09-29T16:05:24.024Z,8.80
2022-09-29T16:08:02.780Z,6.60
2022-09-29T16:10:34.207Z,6.30
2022-09-29T16:13:11.532Z,7.90
2022-09-29T16:15:46.261Z,6.50
2022-09-29T16:18:25.272Z,7.40
2022-09-29T16:21:00.068Z,8.70
2022-09-29T16:23:29.784Z,6.70
2022-09-29T16:26:06.531Z,6.30
2022-09-29T16:28:36.519Z,6.50
2022-09-29T16:31:07.225Z,6.80
2022-09-29T16:33:36.025Z,7.10
2022-09-29T16:36:17.378Z,5.80
2022-09-29T16:38:46.280Z,6.70
2022-09-29T16:41:37.408Z,7.80
2022-09-29T16:44:19.819Z,7.80
2022-09-29T16:47:15.098Z,8.00
2022-09-29T16:49:57.792Z,8.40
2022-09-29T16:52:40.926Z,10.00
2022-09-29T16:55:29.065Z,10.00
2022-09-29T16:58:12.647Z,9.50
2022-09-29T17:00:40.770Z,10.00
2022-09-29T17:03:09.838Z,8.80
2022-09-29T17:05:43.174Z,8.60
2022-09-29T17:08:21.624Z,9.20
2022-09-29T17:10:56.277Z,8.20
2022-09-29T17:13:24.421Z,5.90
2022-09-29T17:15:53.485Z,7.50
2022-09-29T17:18:22.667Z,7.50
2022-09-29T17:20:50.470Z,6.70
2022-09-29T17:23:18.374Z,6.40
2022-09-29T17:25:47.916Z,6.50
2022-09-29T17:28:24.309Z,6.50
2022-09-29T17:30:54.924Z,6.80
2022-09-29T17:33:23.303Z,6.60
2022-09-29T17:35:55.185Z,8.20
2022-09-29T17:38:23.586Z,6.90
2022-09-29T17:41:06.338Z,5.80
2022-09-29T17:43:33.770Z,5.10
2022-09-29T17:46:01.653Z,5.30
2022-09-29T17:48:30.372Z,4.90
2022-09-29T17:50:58.989Z,5.30
2022-09-29T17:53:27.797Z,4.90
2022-09-29T17:55:57.259Z,4.30
2022-09-29T17:58:24.810Z,3.30
2022-09-29T18:00:53.806Z,2.80
2022-09-29T18:03:21.960Z,3.30
2022-09-29T18:05:55.706Z,4.00
2022-09-29T18:08:26.055Z,3.70
2022-09-29T18:10:55.792Z,3.80
2022-09-29T18:13:26.935Z,3.30
2022-09-29T18:18:29.094Z,3.40
2022-09-29T18:20:56.425Z,3.20
2022-09-29T18:23:24.315Z,3.20
2022-09-29T18:25:52.346Z,3.20
2022-09-29T18:28:20.280Z,3.10
2022-09-29T18:31:11.559Z,3.60
2022-09-29T18:33:41.167Z,3.50
2022-09-29T18:36:10.091Z,3.30
2022-09-29T18:38:37.401Z,3.40
2022-09-29T18:41:09.368Z,3.70
2022-09-29T18:43:38.004Z,4.20
2022-09-29T18:46:05.680Z,4.10
2022-09-29T18:48:33.177Z,3.50
2022-09-29T18:51:00.538Z,7.70
2022-09-29T18:53:27.983Z,5.90
2022-09-29T18:56:02.745Z,4.60
2022-09-29T18:58:30.791Z,3.90
2022-09-29T19:00:58.488Z,3.20
2022-09-29T19:03:27.445Z,3.60
2022-09-29T19:05:55.691Z,3.80
2022-09-29T19:08:24.146Z,3.90
2022-09-29T19:10:55.339Z,4.20
2022-09-29T19:13:22.772Z,3.90
2022-09-29T19:15:50.642Z,3.90
2022-09-29T19:18:22.989Z,4.10
2022-09-29T19:20:54.745Z,4.20
2022-09-29T19:23:24.926Z,4.40
2022-09-29T19:25:54.265Z,4.30
2022-09-29T19:28:23.448Z,6.40
2022-09-29T19:30:51.808Z,5.60
2022-09-29T19:33:21.701Z,6.30
2022-09-29T19:35:54.137Z,7.30
2022-09-29T19:38:22.554Z,7.00
2022-09-29T19:40:51.246Z,7.40
2022-09-29T19:43:21.135Z,8.00
2022-09-29T19:45:49.618Z,7.50
2022-09-29T19:48:20.532Z,8.10
2022-09-29T19:51:14.431Z,8.50
2022-09-29T19:53:44.596Z,8.40
2022-09-29T19:56:16.233Z,7.80
2022-09-29T19:58:43.751Z,8.20
2022-09-29T20:01:12.570Z,7.90
2022-09-29T20:03:41.510Z,7.80
2022-09-29T20:06:10.025Z,6.90
2022-09-29T20:08:37.429Z,5.90
2022-09-29T20:11:10.725Z,5.50
2022-09-29T20:13:38.768Z,5.80
2022-09-29T20:16:07.287Z,5.90
2022-09-29T20:18:36.980Z,5.70
2022-09-29T20:21:14.908Z,5.30
2022-09-29T20:23:42.453Z,5.40
2022-09-29T20:26:09.900Z,4.80
2022-09-29T20:28:37.874Z,4.80
2022-09-29T20:31:07.160Z,5.00
2022-09-29T20:33:36.267Z,4.80
2022-09-29T20:36:05.828Z,4.70
2022-09-29T20:38:39.298Z,4.60
2022-09-29T20:41:07.329Z,4.60
2022-09-29T20:43:35.735Z,5.40
2022-09-29T20:46:07.258Z,4.70
2022-09-29T20:48:37.165Z,4.90
2022-09-29T20:51:15.693Z,6.30
2022-09-29T20:53:49.754Z,5.00
2022-09-29T20:56:17.437Z,4.80
2022-09-29T20:58:50.157Z,4.60
2022-09-29T21:01:22.016Z,5.30
2022-09-29T21:04:02.557Z,6.30
2022-09-29T21:06:33.481Z,6.50
2022-09-29T21:09:04.084Z,5.40
2022-09-29T21:11:37.670Z,5.00
2022-09-29T21:14:16.278Z,5.60
2022-09-29T21:16:50.650Z,5.40
2022-09-29T21:19:26.392Z,5.90
2022-09-29T21:21:55.500Z,7.90
2022-09-29T21:24:23.523Z,6.10
2022-09-29T21:26:51.583Z,5.60
2022-09-29T21:29:20.092Z,6.40
2022-09-29T21:31:48.057Z,5.90
2022-09-29T21:34:16.331Z,6.00
2022-09-29T21:36:44.710Z,6.00
2022-09-29T21:39:14.125Z,6.20
2022-09-29T21:41:53.991Z,6.30
2022-09-29T21:44:23.986Z,5.30
2022-09-29T21:46:52.308Z,5.70
2022-09-29T21:49:20.690Z,4.70
2022-09-29T21:51:49.992Z,5.00
2022-09-29T21:54:21.249Z,4.80
2022-09-29T21:56:50.057Z,4.80
2022-09-29T21:59:20.717Z,4.50
2022-09-29T22:01:48.709Z,5.50
2022-09-29T22:04:16.939Z,4.80
2022-09-29T22:06:45.538Z,5.10
2022-09-29T22:09:20.856Z,5.30
2022-09-29T22:11:49.507Z,4.80
2022-09-29T22:14:18.429Z,4.70
2022-09-29T22:16:46.475Z,5.00
2022-09-29T22:19:23.419Z,5.10
2022-09-29T22:22:01.385Z,4.80
2022-09-29T22:24:30.001Z,5.10
2022-09-29T22:26:57.908Z,4.30
2022-09-29T22:29:26.799Z,5.00
2022-09-29T22:31:54.692Z,4.60
2022-09-29T22:34:22.621Z,5.10
2022-09-29T22:36:51.087Z,5.60
2022-09-29T22:39:19.264Z,5.90
2022-09-29T22:41:47.672Z,5.30
2022-09-29T22:44:15.452Z,4.80
2022-09-29T22:46:45.013Z,5.10
2022-09-29T22:49:13.099Z,4.90
2022-09-29T22:51:41.365Z,6.00
2022-09-29T22:54:09.447Z,6.00
2022-09-29T22:56:37.306Z,5.90
2022-09-29T22:59:05.670Z,5.80
2022-09-29T23:01:34.333Z,6.60
2022-09-29T23:04:03.811Z,5.70
2022-09-29T23:06:33.856Z,4.70
2022-09-29T23:09:01.810Z,5.00
2022-09-29T23:11:30.956Z,4.70
2022-09-29T23:14:00.533Z,4.90
2022-09-29T23:16:29.023Z,4.70
2022-09-29T23:18:58.172Z,4.60
2022-09-29T23:21:26.481Z,4.90
2022-09-29T23:23:57.926Z,5.20
2022-09-29T23:26:27.898Z,6.20
2022-09-29T23:28:56.150Z,6.10
2022-09-29T23:31:24.146Z,5.80
2022-09-29T23:33:58.359Z,4.50
2022-09-29T23:36:28.736Z,4.50
2022-09-29T23:39:13.323Z,4.60
2022-09-29T23:41:47.232Z,4.60
2022-09-29T23:44:23.997Z,4.40
2022-09-29T23:46:53.708Z,4.20
2022-09-29T23:49:28.407Z,5.00
2022-09-29T23:52:00.168Z,5.20
2022-09-29T23:54:29.150Z,5.00
2022-09-29T23:56:57.902Z,5.30
2022-09-29T23:59:25.877Z,5.50
